Time;durP1;ratioP1;P1;durP2;ratioP2;P2;SDS_P1;SDS_P2;PMS_P1;PMS_P2;Temp;Humidity;BMP_temperature;BMP_pressure;BME280_temperature;BME280_humidity;BME280_pressure;Samples;Min_cycle;Max_cycle;Signal;HPM_P1;HPM_P2
2022/08/14 00:02:16;;;;;;;13.35;6.35;;;;;;;20.70;64.58;100279.44;5034764;28;20046;-75
2022/08/14 00:04:45;;;;;;;23.95;10.10;;;;;;;20.95;64.59;100323.63;5034195;28;20060;-75
2022/08/14 00:07:15;;;;;;;7.65;5.15;;;;;;;20.90;64.81;100314.53;5034207;28;20054;-75
2022/08/14 00:09:43;;;;;;;;;;;;;;;20.83;64.58;100320.81;5034998;28;20092;-73
2022/08/14 00:12:30;;;;;;;9.18;5.05;;;;;;;20.87;64.59;100320.91;5033889;28;19921;-74
2022/08/14 00:15:22;;;;;;;11.60;5.43;;;;;;;20.50;64.71;100270.66;5032849;28;20054;-74
2022/08/14 00:17:50;;;;;;;10.30;5.68;;;;;;;20.45;65.01;100270.91;5034284;28;20119;-75
2022/08/14 00:20:28;;;;;;;13.10;6.20;;;;;;;20.50;64.90;100286.84;5033846;28;20045;-74
2022/08/14 00:23:02;;;;;;;13.60;6.18;;;;;;;20.72;64.81;100314.78;5033749;28;20052;-74
2022/08/14 00:25:41;;;;;;;10.87;5.47;;;;;;;20.49;65.01;100283.19;5034465;28;20049;-74
2022/08/14 00:28:10;;;;;;;12.10;5.13;;;;;;;20.65;65.08;100296.66;5032190;28;20065;-74
2022/08/14 00:30:44;;;;;;;12.15;5.38;;;;;;;20.74;65.33;100305.91;5033638;28;20088;-74
2022/08/14 00:33:11;;;;;;;8.57;5.53;;;;;;;20.70;65.22;100300.13;5033433;28;20064;-74
2022/08/14 00:35:42;;;;;;;9.85;6.07;;;;;;;20.61;65.13;100259.69;5033750;28;20109;-74
2022/08/14 00:38:29;;;;;;;14.10;5.57;;;;;;;20.87;65.21;100304.72;5033273;28;20045;-75
2022/08/14 00:40:58;;;;;;;12.95;5.68;;;;;;;20.56;65.01;100240.06;5033381;28;20502;-74
2022/08/14 00:43:24;;;;;;;11.93;6.30;;;;;;;21.03;65.32;100322.69;5041759;28;20119;-74
2022/08/14 00:46:04;;;;;;;11.52;5.50;;;;;;;21.06;65.20;100302.09;5053372;28;20049;-74
2022/08/14 00:48:35;;;;;;;12.00;5.45;;;;;;;21.15;64.97;100309.63;5053577;28;20417;-75
2022/08/14 00:51:07;;;;;;;10.20;4.38;;;;;;;20.85;64.83;100261.66;5053376;28;20053;-75
2022/08/14 00:53:36;;;;;;;8.70;4.95;;;;;;;20.86;64.60;100254.81;5052235;28;20489;-75
2022/08/14 00:56:06;;;;;;;13.30;5.72;;;;;;;20.50;64.86;100208.28;5053188;28;20048;-75
2022/08/14 00:58:35;;;;;;;9.25;5.60;;;;;;;20.94;64.86;100275.72;5053163;28;20140;-74
2022/08/14 01:01:13;;;;;;;10.93;5.72;;;;;;;20.86;64.60;100249.16;5052483;28;20056;-74
2022/08/14 01:03:43;;;;;;;11.00;5.72;;;;;;;21.00;64.42;100262.94;5053328;28;20080;-74
2022/08/14 01:06:16;;;;;;;9.80;5.38;;;;;;;21.00;64.23;100258.09;5053335;28;20053;-74
2022/08/14 01:08:44;;;;;;;11.27;6.60;;;;;;;21.12;63.97;100279.13;5052947;28;20846;-73
2022/08/14 01:11:25;;;;;;;17.85;7.03;;;;;;;20.91;63.65;100251.72;5052813;28;20053;-74
2022/08/14 01:14:03;;;;;;;9.18;5.15;;;;;;;21.14;64.09;100285.28;5053173;28;20044;-74
2022/08/14 01:16:50;;;;;;;10.80;6.40;;;;;;;21.05;63.87;100276.88;5051280;28;20063;-74
2022/08/14 01:22:09;;;;;;;21.00;6.40;;;;;;;20.77;64.00;100225.75;5052933;28;20057;-74
2022/08/14 01:24:40;;;;;;;11.55;5.68;;;;;;;20.92;64.18;100266.72;5052703;28;20049;-74
2022/08/14 01:27:17;;;;;;;13.32;5.70;;;;;;;21.01;64.09;100288.13;5046718;28;20053;-74
2022/08/14 01:29:50;;;;;;;9.93;5.22;;;;;;;21.08;64.36;100278.19;5035007;28;20059;-74
2022/08/14 01:32:31;;;;;;;16.77;5.45;;;;;;;20.83;64.31;100247.00;5048736;28;20076;-73
2022/08/14 01:35:10;;;;;;;15.80;6.03;;;;;;;20.51;64.20;100212.78;5041197;28;20053;-74
2022/08/14 01:37:57;;;;;;;9.95;4.93;;;;;;;20.81;64.12;100260.72;5039145;28;20060;-72
2022/08/14 01:40:26;;;;;;;11.90;6.15;;;;;;;20.88;64.32;100269.47;5038975;28;20180;-75
2022/08/14 01:43:13;;;;;;;9.85;5.20;;;;;;;20.68;63.85;100216.53;5033142;28;20041;-75
2022/08/14 01:45:41;;;;;;;12.50;5.38;;;;;;;20.90;64.04;100254.94;5032798;28;20702;-74
2022/08/14 01:48:45;;;;;;;13.63;5.80;;;;;;;20.64;64.03;100227.75;5032117;28;20132;-75
2022/08/14 01:51:13;;;;;;;14.15;5.40;;;;;;;20.76;63.90;100230.59;5033393;28;20434;-75
2022/08/14 01:53:47;;;;;;;11.57;5.25;;;;;;;20.82;64.26;100242.53;5032661;28;20046;-75
2022/08/14 01:56:32;;;;;;;10.93;5.43;;;;;;;20.82;63.77;100239.69;5032577;28;20060;-74
2022/08/14 01:59:14;;;;;;;13.23;5.93;;;;;;;20.61;64.14;100221.97;5031300;28;20502;-74
2022/08/14 02:01:51;;;;;;;14.38;6.85;;;;;;;20.68;63.81;100236.38;5031535;28;20068;-75
2022/08/14 02:04:30;;;;;;;11.98;6.45;;;;;;;20.52;64.00;100220.09;5033357;28;20045;-75
2022/08/14 02:07:17;;;;;;;8.85;5.07;;;;;;;19.90;63.97;100141.88;5039839;28;20055;-75
2022/08/14 02:10:06;;;;;;;10.98;6.15;;;;;;;20.38;64.05;100235.81;5056116;28;20523;-75
2022/08/14 02:12:51;;;;;;;13.57;6.75;;;;;;;20.13;64.01;100213.09;5055950;28;20049;-74
2022/08/14 02:15:24;;;;;;;14.90;6.97;;;;;;;19.91;64.33;100200.22;5056105;28;20512;-74
2022/08/14 02:17:51;;;;;;;13.50;7.15;;;;;;;20.02;64.37;100229.72;5045526;28;20077;-74
2022/08/14 02:20:19;;;;;;;16.85;7.30;;;;;;;20.02;64.53;100232.56;5036361;28;20053;-74
2022/08/14 02:22:52;;;;;;;17.50;7.57;;;;;;;20.14;64.57;100243.13;5036283;28;20046;-74
2022/08/14 02:25:24;;;;;;;17.23;7.65;;;;;;;19.97;64.64;100221.47;5047910;28;20056;-75
2022/08/14 02:27:56;;;;;;;13.90;6.82;;;;;;;19.89;64.76;100219.56;5043023;28;20106;-75
2022/08/14 02:30:44;;;;;;;14.10;7.13;;;;;;;19.94;64.45;100227.03;5036083;28;20168;-73
2022/08/14 02:33:11;;;;;;;12.35;7.10;;;;;;;19.86;64.82;100223.09;5035865;28;20077;-74
2022/08/14 02:35:42;;;;;;;14.00;7.28;;;;;;;19.87;65.09;100210.59;5034739;28;20548;-75
2022/08/14 02:38:18;;;;;;;14.17;7.07;;;;;;;19.74;64.92;100203.25;5036170;28;20045;-74
2022/08/14 02:41:00;;;;;;;13.13;6.78;;;;;;;20.05;65.27;100237.53;5036167;28;20046;-74
2022/08/14 02:43:31;;;;;;;12.00;6.45;;;;;;;19.70;65.77;100171.13;5035563;28;20092;-74
2022/08/14 02:46:12;;;;;;;16.13;7.53;;;;;;;20.03;65.62;100210.72;5035764;28;20053;-73
2022/08/14 02:48:46;;;;;;;14.23;7.13;;;;;;;20.21;65.68;100236.84;5035576;28;20052;-74
2022/08/14 02:51:32;;;;;;;16.92;6.70;;;;;;;20.06;65.65;100208.00;5035760;28;20064;-74
2022/08/14 02:54:00;;;;;;;12.88;6.13;;;;;;;19.71;65.57;100148.09;5035290;28;20045;-73
2022/08/14 02:56:30;;;;;;;13.13;5.70;;;;;;;20.22;66.04;100227.16;5035387;28;20049;-74
2022/08/14 02:59:17;;;;;;;12.20;5.65;;;;;;;20.23;65.77;100228.81;5035801;28;20085;-74
2022/08/14 03:01:46;;;;;;;10.23;6.03;;;;;;;20.20;65.77;100230.34;5035572;28;20056;-75
2022/08/14 03:04:20;;;;;;;10.32;6.18;;;;;;;19.76;65.72;100158.38;5035600;28;20046;-74
2022/08/14 03:06:49;;;;;;;10.57;5.60;;;;;;;20.32;65.76;100238.84;5035498;28;20053;-74
2022/08/14 03:09:32;;;;;;;11.55;5.30;;;;;;;20.19;65.66;100219.34;5035625;28;20053;-74
2022/08/14 03:12:20;;;;;;;9.27;4.53;;;;;;;20.40;65.53;100247.59;5035123;28;20498;-74
2022/08/14 03:15:01;;;;;;;9.57;4.93;;;;;;;20.42;65.41;100237.56;5035649;28;20442;-74
2022/08/14 03:17:30;;;;;;;12.85;5.55;;;;;;;20.18;65.52;100203.53;5034139;28;20580;-74
2022/08/14 03:20:09;;;;;;;11.52;5.47;;;;;;;20.47;65.43;100237.31;5034877;28;20224;-74
2022/08/14 03:22:38;;;;;;;13.48;5.35;;;;;;;20.46;65.50;100244.19;5035244;28;20056;-74
2022/08/14 03:25:07;;;;;;;8.07;5.22;;;;;;;20.14;65.42;100197.75;5035032;28;20049;-74
2022/08/14 03:27:36;;;;;;;11.82;4.80;;;;;;;20.43;65.05;100236.38;5034655;28;20422;-75
2022/08/14 03:30:23;;;;;;;9.80;4.80;;;;;;;20.39;64.91;100221.25;5034738;28;20516;-74
2022/08/14 03:33:05;;;;;;;14.82;6.32;;;;;;;20.22;64.46;100193.13;5044464;28;20041;-75
2022/08/14 03:35:33;;;;;;;11.73;5.97;;;;;;;20.36;64.67;100248.31;5054631;28;20056;-74
2022/08/14 03:38:11;;;;;;;12.07;6.28;;;;;;;20.36;64.68;100241.81;5054570;28;20099;-74
2022/08/14 03:40:58;;;;;;;12.82;6.35;;;;;;;20.14;64.57;100223.25;5054756;28;20048;-75
2022/08/14 03:43:26;;;;;;;10.98;5.95;;;;;;;20.26;64.71;100245.13;5054747;28;20045;-74
2022/08/14 03:45:59;;;;;;;15.45;7.28;;;;;;;20.09;64.42;100229.16;5054472;28;20049;-74
2022/08/14 03:48:26;;;;;;;11.73;6.43;;;;;;;20.22;64.68;100244.19;5054472;28;20513;-75
2022/08/14 03:50:58;;;;;;;16.98;5.50;;;;;;;19.86;64.87;100197.59;5053651;28;20049;-74
2022/08/14 03:53:27;;;;;;;11.65;5.40;;;;;;;20.02;64.74;100221.22;5054213;28;20095;-74
2022/08/14 03:55:57;;;;;;;15.38;6.32;;;;;;;20.17;65.06;100241.56;5054154;28;20103;-74
2022/08/14 03:58:24;;;;;;;11.98;5.68;;;;;;;20.12;65.12;100239.78;5069557;28;20494;-74
2022/08/14 04:01:04;;;;;;;14.90;6.15;;;;;;;20.16;65.16;100234.25;5053379;28;20452;-74
2022/08/14 04:03:32;;;;;;;;;;;;;;;20.09;65.37;100232.81;5054403;28;20063;-73
2022/08/14 04:06:04;;;;;;;8.43;4.82;;;;;;;20.23;65.28;100234.47;5053099;28;19966;-75
2022/08/14 04:08:39;;;;;;;10.68;6.07;;;;;;;19.91;65.44;100200.22;5052842;28;20053;-74
2022/08/14 04:11:08;;;;;;;9.40;5.75;;;;;;;19.58;65.81;100150.06;5054172;28;20060;-74
2022/08/14 04:13:38;;;;;;;8.60;5.30;;;;;;;20.14;65.58;100226.09;5069116;28;20048;-74
2022/08/14 04:16:14;;;;;;;10.40;5.20;;;;;;;20.12;65.33;100225.63;5053820;28;20525;-74
2022/08/14 04:18:43;;;;;;;9.70;5.32;;;;;;;20.19;65.53;100230.69;5048753;28;20045;-74
2022/08/14 04:21:14;;;;;;;;;;;;;;;20.05;65.89;100222.53;5034200;28;20502;-74
2022/08/14 04:23:43;;;;;;;10.35;5.35;;;;;;;20.13;65.53;100224.44;5034540;28;20324;-74
2022/08/14 04:26:17;;;;;;;12.02;5.93;;;;;;;20.11;65.15;100216.28;5033545;28;20065;-74
2022/08/14 04:29:04;;;;;;;12.52;6.15;;;;;;;20.15;65.29;100222.06;5033705;28;20395;-74
2022/08/14 04:31:42;;;;;;;11.48;6.32;;;;;;;20.07;65.07;100204.00;5033973;28;20180;-74
2022/08/14 04:34:29;;;;;;;11.07;5.07;;;;;;;19.96;65.12;100202.78;5033412;28;20132;-75
2022/08/14 04:45:31;;;;;;;10.70;5.15;;;;;;;20.28;64.70;100214.41;5033505;28;20084;-76
2022/08/14 04:48:13;;;;;;;9.07;5.88;;;;;;;20.25;64.78;100215.13;5033368;28;20053;-75
2022/08/14 04:51:02;;;;;;;16.63;7.25;;;;;;;20.15;64.52;100182.38;5033312;28;20057;-75
2022/08/14 04:53:33;;;;;;;18.70;7.37;;;;;;;19.89;64.28;100154.38;5033304;28;20084;-73
2022/08/14 04:56:06;;;;;;;17.02;8.13;;;;;;;20.22;64.19;100215.81;5033539;28;20422;-73
2022/08/14 04:58:58;;;;;;;16.05;7.93;;;;;;;19.49;64.55;100092.72;5033908;28;20421;-73
2022/08/14 05:01:27;;;;;;;22.25;11.65;;;;;;;19.88;64.74;100149.91;5033037;28;20054;-74
2022/08/14 05:03:59;;;;;;;15.00;7.93;;;;;;;20.15;64.53;100192.91;5033059;28;20517;-73
2022/08/14 05:06:26;;;;;;;14.15;6.82;;;;;;;20.16;64.65;100195.38;5032965;28;20060;-74
2022/08/14 05:09:05;;;;;;;11.73;6.57;;;;;;;19.91;65.24;100165.38;5032930;28;20135;-74
2022/08/14 05:11:40;;;;;;;11.52;7.10;;;;;;;19.95;64.82;100152.97;5033042;28;20049;-74
2022/08/14 05:14:07;;;;;;;16.23;7.82;;;;;;;20.15;64.75;100178.72;5034376;28;20053;-74
2022/08/14 05:16:56;;;;;;;16.23;8.18;;;;;;;19.92;64.51;100139.50;5051779;28;20055;-74
2022/08/14 05:19:28;;;;;;;14.32;8.68;;;;;;;20.26;64.54;100199.75;5032532;28;20053;-73
2022/08/14 05:21:59;;;;;;;13.77;7.30;;;;;;;20.18;64.71;100186.53;5031863;28;20417;-73
2022/08/14 05:24:44;;;;;;;18.15;7.90;;;;;;;20.16;64.53;100174.72;5033200;28;20046;-74
2022/08/14 05:27:18;;;;;;;17.30;7.60;;;;;;;20.23;64.59;100187.09;5032493;28;20057;-74
2022/08/14 05:29:51;;;;;;;18.67;10.10;;;;;;;20.12;64.53;100171.75;5032314;28;20060;-73
2022/08/14 05:32:21;;;;;;;15.57;7.72;;;;;;;20.18;64.70;100178.03;5033456;28;20129;-74
2022/08/14 05:34:56;;;;;;;17.20;7.47;;;;;;;19.63;64.52;100098.88;5032858;28;20127;-73
2022/08/14 05:37:26;;;;;;;17.63;8.20;;;;;;;20.02;64.64;100173.03;5032532;28;20057;-73
2022/08/14 05:39:54;;;;;;;18.50;8.45;;;;;;;20.04;64.60;100175.53;5032053;28;20053;-73
2022/08/14 05:42:21;;;;;;;15.60;7.65;;;;;;;20.01;64.59;100179.91;5032928;28;20056;-73
2022/08/14 05:44:53;;;;;;;16.13;8.02;;;;;;;19.79;65.09;100143.50;5032614;28;20049;-74
2022/08/14 05:47:21;;;;;;;16.27;8.00;;;;;;;20.06;64.85;100179.66;5032549;28;20465;-74
2022/08/14 05:49:49;;;;;;;16.42;6.90;;;;;;;20.13;64.87;100194.06;5048365;28;20049;-73
2022/08/14 05:52:18;;;;;;;13.48;8.40;;;;;;;20.05;65.23;100180.84;5051259;28;20489;-74
2022/08/14 05:55:07;;;;;;;18.95;9.20;;;;;;;20.20;64.69;100195.50;5052139;28;20136;-74
2022/08/14 05:57:47;;;;;;;18.40;8.95;;;;;;;20.16;64.47;100205.88;5052385;28;20478;-73
2022/08/14 06:00:16;;;;;;;19.13;9.30;;;;;;;20.11;64.89;100201.28;5052372;28;20084;-74
2022/08/14 06:02:57;;;;;;;19.35;9.00;;;;;;;20.02;64.84;100189.22;5052733;28;20075;-74
2022/08/14 06:05:27;;;;;;;17.13;8.73;;;;;;;20.11;64.84;100204.13;5067026;28;20449;-73
2022/08/14 06:07:56;;;;;;;16.13;7.60;;;;;;;19.87;64.98;100168.91;5052283;28;20132;-73
2022/08/14 06:10:23;;;;;;;16.40;7.82;;;;;;;20.05;64.60;100199.88;5052532;28;20118;-73
2022/08/14 06:12:51;;;;;;;17.48;8.85;;;;;;;19.77;64.74;100179.88;5052254;28;20130;-73
2022/08/14 06:15:31;;;;;;;15.88;7.53;;;;;;;19.32;64.64;100118.41;5052562;28;20119;-73
2022/08/14 06:17:58;;;;;;;15.48;8.95;;;;;;;19.59;64.71;100168.72;5044625;28;20099;-73
2022/08/14 06:20:26;;;;;;;16.55;8.82;;;;;;;19.89;65.11;100213.88;5032582;28;20134;-73
2022/08/14 06:22:55;;;;;;;11.85;6.25;;;;;;;19.65;64.89;100170.16;5041016;28;20528;-74
2022/08/14 06:25:22;;;;;;;20.40;8.32;;;;;;;19.54;64.49;100154.78;5052334;28;20106;-74
2022/08/14 06:27:51;;;;;;;21.02;7.90;;;;;;;19.73;64.64;100193.09;5051929;28;20053;-73
2022/08/14 06:30:22;;;;;;;10.60;6.85;;;;;;;19.91;65.17;100227.72;5052270;28;20063;-73
2022/08/14 06:32:55;;;;;;;9.77;6.25;;;;;;;19.76;65.35;100198.88;5052203;28;20049;-74
2022/08/14 06:35:23;;;;;;;12.05;7.28;;;;;;;19.67;65.33;100188.84;5052054;28;20045;-73
2022/08/14 06:37:53;;;;;;;14.55;7.47;;;;;;;20.05;65.54;100236.72;5052417;28;20132;-75
2022/08/14 06:40:45;;;;;;;12.20;6.13;;;;;;;20.13;65.17;100228.09;5051446;28;20049;-74
2022/08/14 06:43:14;;;;;;;13.52;7.35;;;;;;;20.30;65.00;100229.88;5051994;28;20107;-74
2022/08/14 06:45:44;;;;;;;13.77;6.97;;;;;;;20.32;64.93;100204.00;5052176;28;20049;-74
2022/08/14 06:48:22;;;;;;;11.30;6.45;;;;;;;20.76;64.57;100212.75;5052262;28;20498;-74
2022/08/14 06:50:51;;;;;;;11.80;8.02;;;;;;;21.12;64.00;100228.84;5051982;28;20045;-74
2022/08/14 06:53:19;;;;;;;14.70;7.05;;;;;;;21.13;63.70;100181.38;5070815;28;20136;-75
2022/08/14 06:55:47;;;;;;;11.10;5.88;;;;;;;21.56;63.22;100206.19;5055553;28;20049;-75
2022/08/14 06:58:24;;;;;;;8.70;5.38;;;;;;;21.81;62.68;100214.56;5015592;28;20136;-74
2022/08/14 07:06:49;;;;;;;12.85;5.90;;;;;;;22.13;61.77;100221.13;5015331;28;20053;-75
2022/08/14 07:09:16;;;;;;;13.65;7.45;;;;;;;21.87;61.86;100177.00;5015559;28;20046;-75
2022/08/14 07:11:50;;;;;;;16.13;7.10;;;;;;;22.01;61.81;100205.78;5015430;28;20141;-75
2022/08/14 07:14:17;;;;;;;14.70;7.72;;;;;;;22.07;61.33;100220.56;5028066;28;20049;-74
2022/08/14 07:16:44;;;;;;;16.15;5.60;;;;;;;21.87;61.68;100182.66;5035050;28;20053;-75
2022/08/14 07:19:11;;;;;;;13.88;6.30;;;;;;;22.34;61.06;100230.22;5034845;28;20107;-75
2022/08/14 07:21:38;;;;;;;13.05;5.65;;;;;;;22.06;61.11;100184.78;5035240;28;20096;-74
2022/08/14 07:24:05;;;;;;;14.73;5.32;;;;;;;22.41;60.45;100198.28;5024944;28;20114;-75
2022/08/14 07:26:47;;;;;;;8.48;4.95;;;;;;;22.99;59.88;100220.41;5019798;28;20128;-74
2022/08/14 07:29:15;;;;;;;10.88;5.35;;;;;;;23.39;59.58;100220.84;5035084;28;20059;-74
2022/08/14 07:31:48;;;;;;;10.20;5.90;;;;;;;23.71;58.86;100209.28;5035315;28;20087;-77
2022/08/14 07:34:15;;;;;;;10.98;4.78;;;;;;;23.79;57.81;100185.41;5034637;28;20076;-75
2022/08/14 07:37:02;;;;;;;6.78;4.55;;;;;;;24.12;57.85;100233.28;5034590;28;20577;-76
2022/08/14 07:39:29;;;;;;;11.25;4.85;;;;;;;24.05;57.99;100220.91;5034897;28;20046;-75
2022/08/14 07:42:00;;;;;;;11.43;6.45;;;;;;;24.17;57.65;100235.00;5035067;28;20050;-75
2022/08/14 07:44:27;;;;;;;15.85;5.80;;;;;;;24.11;57.42;100242.22;5034820;28;20072;-75
2022/08/14 07:47:11;;;;;;;8.73;5.00;;;;;;;24.08;57.06;100209.56;5035202;28;20084;-76
2022/08/14 07:49:40;;;;;;;10.82;4.35;;;;;;;24.41;56.63;100216.69;5034371;28;20081;-76
2022/08/14 07:52:09;;;;;;;12.73;5.45;;;;;;;24.56;56.04;100212.84;5034431;28;20049;-76
2022/08/14 07:54:40;;;;;;;7.82;4.32;;;;;;;24.91;55.91;100236.59;5034298;28;20057;-75
2022/08/14 07:57:08;;;;;;;10.18;4.80;;;;;;;25.19;55.28;100245.59;5034738;28;20050;-75
2022/08/14 07:59:47;;;;;;;6.53;3.88;;;;;;;25.15;54.64;100193.31;5034408;28;20049;-76
2022/08/14 08:02:16;;;;;;;9.27;4.30;;;;;;;25.75;54.04;100238.97;5033960;28;20077;-76
2022/08/14 08:04:52;;;;;;;9.52;5.40;;;;;;;26.16;53.36;100239.00;5034662;28;20107;-76
2022/08/14 08:07:29;;;;;;;8.05;4.57;;;;;;;26.30;52.69;100185.97;5034134;28;20060;-75
2022/08/14 08:09:58;;;;;;;10.80;4.40;;;;;;;26.73;52.18;100235.00;5034312;28;20060;-74
2022/08/14 08:12:28;;;;;;;8.65;3.15;;;;;;;26.30;52.17;100192.50;5034331;28;20049;-75
2022/08/14 08:14:59;;;;;;;6.85;3.92;;;;;;;26.55;52.11;100217.69;5033914;28;20049;-75
2022/08/14 08:17:36;;;;;;;14.60;6.50;;;;;;;26.42;51.23;100149.22;5033657;28;20045;-75
2022/08/14 08:20:14;;;;;;;8.35;4.18;;;;;;;27.02;50.93;100190.16;5014578;28;20046;-75
2022/08/14 08:22:47;;;;;;;8.02;3.00;;;;;;;27.24;50.01;100180.44;5030394;28;20053;-75
2022/08/14 08:25:23;;;;;;;4.68;2.15;;;;;;;27.71;49.43;100215.03;5034109;28;20049;-75
2022/08/14 08:28:03;;;;;;;5.50;2.23;;;;;;;28.11;49.19;100234.81;5033636;28;20057;-75
2022/08/14 08:30:37;;;;;;;5.03;2.50;;;;;;;28.11;48.40;100229.09;5033902;28;20057;-76
2022/08/14 08:33:17;;;;;;;4.70;2.28;;;;;;;28.23;47.79;100212.69;5033858;28;20053;-76
2022/08/14 08:35:45;;;;;;;6.40;2.42;;;;;;;28.15;47.15;100211.03;5033319;28;20120;-76
2022/08/14 08:38:18;;;;;;;7.75;2.00;;;;;;;28.04;47.30;100171.66;5018859;28;20056;-76
2022/08/14 08:41:05;;;;;;;;;;;;;;;28.44;48.95;100241.41;5033902;28;20052;-76
2022/08/14 08:43:38;;;;;;;7.22;2.70;;;;;;;28.75;47.25;100222.53;5034089;28;19986;-75
2022/08/14 08:46:18;;;;;;;10.55;4.70;;;;;;;28.81;45.87;100179.81;5033731;28;20049;-76
2022/08/14 08:48:56;;;;;;;8.30;2.67;;;;;;;29.32;45.45;100210.06;5033703;28;20119;-75
2022/08/14 08:51:34;;;;;;;4.85;2.60;;;;;;;29.72;45.14;100245.28;5032606;28;20039;-75
2022/08/14 08:54:02;;;;;;;8.98;3.28;;;;;;;29.99;44.70;100260.75;5033138;28;20045;-75
2022/08/14 08:56:35;;;;;;;6.18;3.00;;;;;;;30.28;43.66;100251.94;5033681;28;20099;-75
2022/08/14 08:59:19;;;;;;;4.13;2.60;;;;;;;30.00;43.62;100189.59;5033077;28;20502;-74
2022/08/14 09:01:50;;;;;;;6.97;3.05;;;;;;;30.29;43.50;100249.88;5033931;28;20422;-74
2022/08/14 09:04:33;;;;;;;6.10;2.88;;;;;;;30.00;43.62;100255.81;5033398;28;20053;-75
2022/08/14 09:07:00;;;;;;;4.82;2.88;;;;;;;29.91;43.64;100229.53;5033007;28;20057;-75
2022/08/14 09:09:50;;;;;;;6.30;2.90;;;;;;;29.73;43.07;100226.75;5032998;28;20057;-75
2022/08/14 09:12:24;;;;;;;8.57;2.85;;;;;;;29.90;43.26;100260.38;5033756;28;20049;-76
2022/08/14 09:14:58;;;;;;;5.20;2.47;;;;;;;29.65;43.28;100179.13;5032051;28;20045;-78
2022/08/14 09:17:25;;;;;;;5.05;2.47;;;;;;;30.17;42.51;100259.81;5032806;28;20494;-76
2022/08/14 09:19:52;;;;;;;4.38;2.42;;;;;;;30.26;42.66;100265.97;5032767;28;20076;-75
2022/08/14 09:22:21;;;;;;;5.75;3.03;;;;;;;30.49;41.83;100261.66;5033074;28;20049;-75
2022/08/14 09:25:08;;;;;;;6.70;2.20;;;;;;;30.71;41.29;100265.19;5033043;28;20041;-76
2022/08/14 09:27:37;;;;;;;5.97;1.63;;;;;;;30.94;40.70;100230.81;5032769;28;20097;-77
2022/08/14 09:30:08;;;;;;;4.38;2.55;;;;;;;31.26;39.69;100227.53;5032474;28;20076;-76
2022/08/14 09:33:00;;;;;;;4.57;2.45;;;;;;;31.62;39.17;100273.28;5032794;28;20501;-76
2022/08/14 09:36:02;;;;;;;4.43;1.92;;;;;;;31.52;39.07;100219.41;5031669;28;20124;-75
2022/08/14 09:39:17;;;;;;;7.97;3.35;;;;;;;32.04;38.96;100271.13;5032665;28;20103;-76
2022/08/14 09:42:01;;;;;;;3.40;1.58;;;;;;;32.19;38.54;100237.06;5020418;28;20071;-75
2022/08/14 09:45:22;;;;;;;5.85;2.40;;;;;;;32.63;38.39;100256.16;5032899;28;20068;-76
2022/08/14 09:47:55;;;;;;;3.40;2.13;;;;;;;32.89;37.59;100245.81;5033068;28;20497;-75
2022/08/14 09:50:24;;;;;;;5.70;2.40;;;;;;;32.95;36.71;100258.50;5032897;28;20085;-75
2022/08/14 09:53:04;;;;;;;3.10;1.77;;;;;;;32.63;36.97;100230.16;5032895;28;20057;-75
2022/08/14 09:55:44;;;;;;;3.55;2.40;;;;;;;32.65;36.49;100258.59;5032993;28;20046;-76
2022/08/14 09:58:13;;;;;;;7.75;2.35;;;;;;;32.76;36.47;100265.84;5032743;28;20053;-75
2022/08/14 10:00:48;;;;;;;5.88;2.10;;;;;;;33.06;36.36;100243.88;5032763;28;20512;-79
2022/08/14 10:03:31;;;;;;;6.75;2.35;;;;;;;33.25;36.14;100263.31;5033325;28;20080;-76
2022/08/14 10:06:13;;;;;;;5.78;1.83;;;;;;;33.20;36.14;100255.16;5032589;28;20052;-80
2022/08/14 10:09:03;;;;;;;4.80;1.80;;;;;;;33.25;35.95;100269.09;5032503;28;20521;-75
2022/08/14 10:11:34;;;;;;;3.42;1.95;;;;;;;32.84;35.86;100265.72;5032369;28;20049;-74
2022/08/14 10:14:23;;;;;;;3.50;1.50;;;;;;;32.84;36.31;100257.03;5032270;28;20049;-76
2022/08/14 10:17:03;;;;;;;5.20;2.17;;;;;;;33.05;35.81;100271.13;5032448;28;20057;-75
2022/08/14 10:19:33;;;;;;;4.18;2.10;;;;;;;32.65;35.68;100252.81;5012888;28;20064;-76
2022/08/14 10:22:11;;;;;;;4.82;3.47;;;;;;;32.37;36.41;100278.03;5031310;28;20049;-77
2022/08/14 10:25:11;;;;;;;9.77;3.28;;;;;;;32.64;36.26;100248.31;5032221;28;20041;-75
2022/08/14 10:27:37;;;;;;;6.32;2.00;;;;;;;32.88;35.66;100238.34;5036149;28;20061;-76
2022/08/14 10:30:12;;;;;;;2.85;1.75;;;;;;;33.40;35.17;100263.00;5035955;28;20080;-75
2022/08/14 10:32:48;;;;;;;7.63;3.25;;;;;;;33.47;34.86;100262.84;5036065;28;20103;-75
2022/08/14 10:35:17;;;;;;;7.93;2.35;;;;;;;32.94;34.82;100218.44;5036242;28;20052;-77
2022/08/14 10:37:50;;;;;;;6.22;2.20;;;;;;;33.30;34.43;100250.41;5036589;28;20046;-76
2022/08/14 10:40:26;;;;;;;;;;;;;;;33.13;36.36;100258.19;5036551;28;20502;-75
2022/08/14 10:43:18;;;;;;;5.38;1.90;;;;;;;33.60;35.00;100258.06;5036600;28;19921;-76
2022/08/14 10:45:59;;;;;;;7.38;2.00;;;;;;;33.63;34.91;100210.84;5036222;28;20048;-76
2022/08/14 10:48:59;;;;;;;5.28;2.10;;;;;;;33.19;34.85;100246.91;5034774;28;20509;-77
2022/08/14 10:51:27;;;;;;;7.57;2.08;;;;;;;32.54;35.46;100200.97;5036428;28;20151;-78
2022/08/14 10:53:57;;;;;;;4.15;2.30;;;;;;;32.57;35.04;100249.25;5036407;28;20053;-75
2022/08/14 10:56:33;;;;;;;6.93;2.70;;;;;;;31.79;36.01;100237.59;5035489;28;20552;-74
2022/08/14 10:59:06;;;;;;;8.57;3.63;;;;;;;31.57;36.34;100265.13;5034319;28;20054;-76
2022/08/14 11:01:37;;;;;;;4.72;3.33;;;;;;;31.93;35.89;100264.66;5035339;28;20045;-75
2022/08/14 11:04:24;;;;;;;5.10;2.53;;;;;;;31.96;35.74;100250.16;5035619;28;20052;-76
2022/08/14 11:06:55;;;;;;;6.10;2.10;;;;;;;31.61;35.99;100245.69;5035286;28;20045;-74
2022/08/14 11:09:22;;;;;;;5.28;1.52;;;;;;;31.29;36.27;100241.13;5035442;28;20059;-75
2022/08/14 11:11:55;;;;;;;5.43;2.50;;;;;;;31.47;36.11;100222.78;5035780;28;20046;-77
2022/08/14 11:14:58;;;;;;;5.63;2.17;;;;;;;31.59;36.34;100245.28;5034153;28;20429;-77
2022/08/14 11:17:31;;;;;;;3.47;2.13;;;;;;;31.23;36.44;100248.59;5035295;28;20099;-75
2022/08/14 11:20:00;;;;;;;5.57;2.10;;;;;;;30.68;36.53;100243.78;5034862;28;20056;-74
2022/08/14 11:22:30;;;;;;;4.03;2.28;;;;;;;30.63;37.72;100262.38;5035158;28;20151;-74
2022/08/14 11:25:19;;;;;;;5.70;2.55;;;;;;;30.97;37.62;100255.06;5034358;28;20480;-75
2022/08/14 11:27:47;;;;;;;6.47;2.70;;;;;;;31.36;37.35;100261.25;5034730;28;20083;-75
2022/08/14 11:30:18;;;;;;;4.15;1.80;;;;;;;31.46;36.74;100250.03;5053811;28;20049;-74
2022/08/14 11:33:06;;;;;;;4.38;2.00;;;;;;;30.75;36.96;100180.31;5054754;28;20049;-75
2022/08/14 11:35:36;;;;;;;9.20;2.33;;;;;;;30.72;37.13;100178.28;5054728;28;20091;-75
2022/08/14 11:38:14;;;;;;;;;;;;;;;31.29;37.94;100249.78;5054313;28;20103;-75
2022/08/14 11:40:45;;;;;;;6.13;2.15;;;;;;;31.26;37.02;100253.50;5054740;28;19921;-75
2022/08/14 11:43:14;;;;;;;5.90;2.08;;;;;;;30.52;37.30;100215.50;5054507;28;20060;-75
2022/08/14 11:45:46;;;;;;;3.15;2.40;;;;;;;30.78;37.71;100214.06;5053873;28;20041;-75
2022/08/14 11:48:22;;;;;;;3.65;1.90;;;;;;;31.51;37.36;100209.13;5054593;28;20087;-75
2022/08/14 11:51:22;;;;;;;5.25;2.25;;;;;;;32.00;36.53;100232.78;5054550;28;20049;-75
2022/08/14 11:54:16;;;;;;;4.00;1.90;;;;;;;32.44;36.36;100242.44;5054378;28;20089;-75
2022/08/14 11:56:48;;;;;;;5.97;1.70;;;;;;;32.50;35.62;100182.91;5052648;28;20045;-75
2022/08/14 11:59:21;;;;;;;3.13;1.70;;;;;;;33.60;34.77;100229.13;5054075;28;20132;-75
2022/08/14 12:02:10;;;;;;;4.50;1.88;;;;;;;34.33;33.88;100234.94;5067702;28;20452;-75
2022/08/14 12:04:56;;;;;;;4.43;1.85;;;;;;;33.93;33.82;100227.13;5036084;28;20053;-75
2022/08/14 12:07:23;;;;;;;5.68;2.42;;;;;;;33.70;34.03;100241.72;5033113;28;20111;-75
2022/08/14 12:09:54;;;;;;;5.32;2.10;;;;;;;33.48;33.67;100212.44;5032754;28;20053;-75
2022/08/14 12:12:24;;;;;;;3.15;1.73;;;;;;;34.18;32.53;100209.16;5033898;28;20132;-73
2022/08/14 12:15:11;;;;;;;3.65;1.77;;;;;;;35.43;31.21;100248.59;5032500;28;20063;-74
2022/08/14 12:17:52;;;;;;;8.65;2.03;;;;;;;36.27;29.88;100182.47;5034159;28;20119;-74